sensor_id;sensor_type;location;lat;lon;timestamp;P1;durP1;ratioP1;P2;durP2;ratioP2
51636;SDS011;37713;53.254;6.460;2023-07-31T00:00:29;13.07;;;4.80;;
51636;SDS011;37713;53.254;6.460;2023-07-31T00:02:55;11.95;;;4.65;;
51636;SDS011;37713;53.254;6.460;2023-07-31T00:05:21;11.35;;;4.80;;
51636;SDS011;37713;53.254;6.460;2023-07-31T00:07:47;14.65;;;4.97;;
51636;SDS011;37713;53.254;6.460;2023-07-31T00:10:13;15.50;;;4.90;;
51636;SDS011;37713;53.254;6.460;2023-07-31T00:12:39;20.95;;;6.30;;
51636;SDS011;37713;53.254;6.460;2023-07-31T00:15:06;10.52;;;5.65;;
51636;SDS011;37713;53.254;6.460;2023-07-31T00:17:33;17.30;;;5.65;;
51636;SDS011;37713;53.254;6.460;2023-07-31T00:19:59;9.20;;;5.25;;
51636;SDS011;37713;53.254;6.460;2023-07-31T00:22:25;17.05;;;5.45;;
51636;SDS011;37713;53.254;6.460;2023-07-31T00:24:51;12.55;;;4.88;;
51636;SDS011;37713;53.254;6.460;2023-07-31T00:27:16;8.23;;;4.13;;
51636;SDS011;37713;53.254;6.460;2023-07-31T00:29:42;8.18;;;3.50;;
51636;SDS011;37713;53.254;6.460;2023-07-31T00:32:08;6.55;;;3.40;;
51636;SDS011;37713;53.254;6.460;2023-07-31T00:34:34;8.65;;;2.92;;
51636;SDS011;37713;53.254;6.460;2023-07-31T00:36:59;10.95;;;3.83;;
51636;SDS011;37713;53.254;6.460;2023-07-31T00:39:25;18.40;;;4.03;;
51636;SDS011;37713;53.254;6.460;2023-07-31T00:41:51;10.32;;;3.75;;
51636;SDS011;37713;53.254;6.460;2023-07-31T00:44:16;12.35;;;3.83;;
51636;SDS011;37713;53.254;6.460;2023-07-31T00:46:42;9.43;;;4.00;;
51636;SDS011;37713;53.254;6.460;2023-07-31T00:49:08;7.47;;;3.95;;
51636;SDS011;37713;53.254;6.460;2023-07-31T00:51:35;6.88;;;3.65;;
51636;SDS011;37713;53.254;6.460;2023-07-31T00:54:00;6.05;;;3.55;;
51636;SDS011;37713;53.254;6.460;2023-07-31T00:56:29;5.55;;;3.70;;
51636;SDS011;37713;53.254;6.460;2023-07-31T00:58:55;7.95;;;3.45;;
51636;SDS011;37713;53.254;6.460;2023-07-31T01:01:21;6.80;;;3.88;;
51636;SDS011;37713;53.254;6.460;2023-07-31T01:03:47;5.45;;;3.55;;
51636;SDS011;37713;53.254;6.460;2023-07-31T01:08:54;10.05;;;3.40;;
51636;SDS011;37713;53.254;6.460;2023-07-31T01:11:28;10.25;;;3.22;;
51636;SDS011;37713;53.254;6.460;2023-07-31T01:13:55;6.25;;;3.08;;
51636;SDS011;37713;53.254;6.460;2023-07-31T01:16:22;5.05;;;2.80;;
51636;SDS011;37713;53.254;6.460;2023-07-31T01:18:48;4.40;;;2.70;;
51636;SDS011;37713;53.254;6.460;2023-07-31T01:27:04;9.57;;;2.63;;
51636;SDS011;37713;53.254;6.460;2023-07-31T01:29:40;3.90;;;1.90;;
51636;SDS011;37713;53.254;6.460;2023-07-31T01:32:07;17.40;;;2.25;;
51636;SDS011;37713;53.254;6.460;2023-07-31T01:34:34;8.30;;;1.75;;
51636;SDS011;37713;53.254;6.460;2023-07-31T01:37:01;12.30;;;2.38;;
51636;SDS011;37713;53.254;6.460;2023-07-31T01:39:28;5.07;;;2.03;;
51636;SDS011;37713;53.254;6.460;2023-07-31T01:41:53;7.70;;;2.47;;
51636;SDS011;37713;53.254;6.460;2023-07-31T01:44:19;16.92;;;4.03;;
51636;SDS011;37713;53.254;6.460;2023-07-31T01:46:45;12.00;;;3.08;;
51636;SDS011;37713;53.254;6.460;2023-07-31T01:49:11;6.55;;;2.95;;
51636;SDS011;37713;53.254;6.460;2023-07-31T01:51:37;7.95;;;3.00;;
51636;SDS011;37713;53.254;6.460;2023-07-31T01:54:03;12.40;;;3.67;;
51636;SDS011;37713;53.254;6.460;2023-07-31T01:56:28;13.95;;;3.13;;
51636;SDS011;37713;53.254;6.460;2023-07-31T01:58:54;11.05;;;3.50;;
51636;SDS011;37713;53.254;6.460;2023-07-31T02:01:20;11.90;;;3.08;;
51636;SDS011;37713;53.254;6.460;2023-07-31T02:03:46;9.80;;;2.72;;
51636;SDS011;37713;53.254;6.460;2023-07-31T02:06:12;9.30;;;3.60;;
51636;SDS011;37713;53.254;6.460;2023-07-31T02:08:37;7.07;;;2.83;;
51636;SDS011;37713;53.254;6.460;2023-07-31T02:11:03;6.43;;;2.88;;
51636;SDS011;37713;53.254;6.460;2023-07-31T02:13:29;8.52;;;3.30;;
51636;SDS011;37713;53.254;6.460;2023-07-31T02:15:55;21.20;;;2.78;;
51636;SDS011;37713;53.254;6.460;2023-07-31T02:18:20;9.80;;;3.10;;
51636;SDS011;37713;53.254;6.460;2023-07-31T02:20:50;10.15;;;3.05;;
51636;SDS011;37713;53.254;6.460;2023-07-31T02:23:17;13.02;;;2.97;;
51636;SDS011;37713;53.254;6.460;2023-07-31T02:25:43;11.75;;;2.97;;
51636;SDS011;37713;53.254;6.460;2023-07-31T02:28:10;16.75;;;3.35;;
51636;SDS011;37713;53.254;6.460;2023-07-31T02:30:35;6.70;;;2.60;;
51636;SDS011;37713;53.254;6.460;2023-07-31T02:33:01;8.45;;;2.55;;
51636;SDS011;37713;53.254;6.460;2023-07-31T02:35:27;7.22;;;2.40;;
51636;SDS011;37713;53.254;6.460;2023-07-31T02:37:53;7.22;;;2.65;;
51636;SDS011;37713;53.254;6.460;2023-07-31T02:40:18;11.15;;;2.72;;
51636;SDS011;37713;53.254;6.460;2023-07-31T02:42:44;7.07;;;2.35;;
51636;SDS011;37713;53.254;6.460;2023-07-31T02:45:10;8.15;;;2.67;;
51636;SDS011;37713;53.254;6.460;2023-07-31T02:47:36;10.93;;;2.60;;
51636;SDS011;37713;53.254;6.460;2023-07-31T02:50:02;8.57;;;2.75;;
51636;SDS011;37713;53.254;6.460;2023-07-31T02:52:29;14.43;;;2.90;;
51636;SDS011;37713;53.254;6.460;2023-07-31T02:54:54;7.15;;;2.40;;
51636;SDS011;37713;53.254;6.460;2023-07-31T02:57:20;7.32;;;2.75;;
51636;SDS011;37713;53.254;6.460;2023-07-31T02:59:46;12.35;;;2.55;;
51636;SDS011;37713;53.254;6.460;2023-07-31T03:02:12;9.90;;;2.55;;
51636;SDS011;37713;53.254;6.460;2023-07-31T03:04:38;13.65;;;2.67;;
51636;SDS011;37713;53.254;6.460;2023-07-31T03:07:04;12.65;;;2.75;;
51636;SDS011;37713;53.254;6.460;2023-07-31T03:09:30;13.93;;;2.97;;
51636;SDS011;37713;53.254;6.460;2023-07-31T03:11:56;11.75;;;2.63;;
51636;SDS011;37713;53.254;6.460;2023-07-31T03:14:22;13.13;;;2.42;;
51636;SDS011;37713;53.254;6.460;2023-07-31T03:16:48;9.85;;;2.60;;
51636;SDS011;37713;53.254;6.460;2023-07-31T03:19:14;7.30;;;3.00;;
51636;SDS011;37713;53.254;6.460;2023-07-31T03:21:40;10.35;;;2.47;;
51636;SDS011;37713;53.254;6.460;2023-07-31T03:24:05;8.30;;;2.53;;
51636;SDS011;37713;53.254;6.460;2023-07-31T03:26:31;7.55;;;2.35;;
51636;SDS011;37713;53.254;6.460;2023-07-31T03:28:57;9.85;;;2.65;;
51636;SDS011;37713;53.254;6.460;2023-07-31T03:31:23;11.90;;;2.55;;
51636;SDS011;37713;53.254;6.460;2023-07-31T03:33:49;12.48;;;2.47;;
51636;SDS011;37713;53.254;6.460;2023-07-31T03:36:15;6.38;;;2.22;;
51636;SDS011;37713;53.254;6.460;2023-07-31T03:38:40;9.02;;;2.30;;
51636;SDS011;37713;53.254;6.460;2023-07-31T03:41:06;6.53;;;2.30;;
51636;SDS011;37713;53.254;6.460;2023-07-31T03:43:32;6.80;;;2.28;;
51636;SDS011;37713;53.254;6.460;2023-07-31T03:46:01;7.90;;;2.13;;
51636;SDS011;37713;53.254;6.460;2023-07-31T03:48:28;7.18;;;2.42;;
51636;SDS011;37713;53.254;6.460;2023-07-31T03:50:54;7.10;;;2.20;;
51636;SDS011;37713;53.254;6.460;2023-07-31T03:53:20;17.73;;;2.70;;
51636;SDS011;37713;53.254;6.460;2023-07-31T03:55:46;5.00;;;1.90;;
51636;SDS011;37713;53.254;6.460;2023-07-31T03:58:12;16.80;;;2.20;;
51636;SDS011;37713;53.254;6.460;2023-07-31T04:00:39;7.38;;;1.80;;
51636;SDS011;37713;53.254;6.460;2023-07-31T04:03:05;7.97;;;1.90;;
51636;SDS011;37713;53.254;6.460;2023-07-31T04:05:31;8.40;;;2.10;;
51636;SDS011;37713;53.254;6.460;2023-07-31T04:07:58;3.47;;;1.60;;
51636;SDS011;37713;53.254;6.460;2023-07-31T04:10:23;4.38;;;1.70;;
51636;SDS011;37713;53.254;6.460;2023-07-31T04:12:49;9.93;;;1.77;;
51636;SDS011;37713;53.254;6.460;2023-07-31T04:15:15;9.63;;;1.65;;
51636;SDS011;37713;53.254;6.460;2023-07-31T04:17:41;5.90;;;1.65;;
51636;SDS011;37713;53.254;6.460;2023-07-31T04:20:07;4.78;;;1.88;;
51636;SDS011;37713;53.254;6.460;2023-07-31T04:22:33;4.85;;;1.50;;
51636;SDS011;37713;53.254;6.460;2023-07-31T04:24:59;4.40;;;1.60;;
51636;SDS011;37713;53.254;6.460;2023-07-31T04:27:25;16.42;;;2.88;;
51636;SDS011;37713;53.254;6.460;2023-07-31T04:29:51;10.85;;;2.03;;
51636;SDS011;37713;53.254;6.460;2023-07-31T04:32:17;7.53;;;1.95;;
51636;SDS011;37713;53.254;6.460;2023-07-31T04:34:43;7.78;;;1.85;;
51636;SDS011;37713;53.254;6.460;2023-07-31T04:37:08;3.70;;;1.52;;
51636;SDS011;37713;53.254;6.460;2023-07-31T04:39:34;7.25;;;1.88;;
51636;SDS011;37713;53.254;6.460;2023-07-31T04:42:00;4.57;;;1.15;;
51636;SDS011;37713;53.254;6.460;2023-07-31T04:44:26;8.05;;;1.30;;
51636;SDS011;37713;53.254;6.460;2023-07-31T04:46:51;9.88;;;1.60;;
51636;SDS011;37713;53.254;6.460;2023-07-31T04:49:17;6.03;;;1.17;;
51636;SDS011;37713;53.254;6.460;2023-07-31T04:51:44;3.35;;;1.08;;
51636;SDS011;37713;53.254;6.460;2023-07-31T04:54:10;5.75;;;1.20;;
51636;SDS011;37713;53.254;6.460;2023-07-31T04:56:37;3.83;;;1.30;;
51636;SDS011;37713;53.254;6.460;2023-07-31T04:59:03;8.25;;;1.20;;
51636;SDS011;37713;53.254;6.460;2023-07-31T05:01:29;12.40;;;1.58;;
51636;SDS011;37713;53.254;6.460;2023-07-31T05:03:55;10.90;;;1.20;;
51636;SDS011;37713;53.254;6.460;2023-07-31T05:06:21;9.23;;;1.30;;
51636;SDS011;37713;53.254;6.460;2023-07-31T05:08:46;14.82;;;1.95;;
51636;SDS011;37713;53.254;6.460;2023-07-31T05:11:12;5.03;;;1.23;;
51636;SDS011;37713;53.254;6.460;2023-07-31T05:13:38;22.55;;;1.73;;
51636;SDS011;37713;53.254;6.460;2023-07-31T05:16:04;6.88;;;1.13;;
51636;SDS011;37713;53.254;6.460;2023-07-31T05:18:29;4.20;;;1.42;;
51636;SDS011;37713;53.254;6.460;2023-07-31T05:20:55;8.18;;;1.88;;
51636;SDS011;37713;53.254;6.460;2023-07-31T05:23:21;11.13;;;1.52;;
51636;SDS011;37713;53.254;6.460;2023-07-31T05:25:47;6.45;;;1.10;;
51636;SDS011;37713;53.254;6.460;2023-07-31T05:28:12;8.55;;;1.00;;
51636;SDS011;37713;53.254;6.460;2023-07-31T05:30:38;5.07;;;1.00;;
51636;SDS011;37713;53.254;6.460;2023-07-31T05:33:04;2.95;;;0.88;;
51636;SDS011;37713;53.254;6.460;2023-07-31T05:35:30;2.25;;;0.82;;
51636;SDS011;37713;53.254;6.460;2023-07-31T05:37:55;5.00;;;0.73;;
51636;SDS011;37713;53.254;6.460;2023-07-31T05:40:21;5.50;;;1.65;;
51636;SDS011;37713;53.254;6.460;2023-07-31T05:42:47;4.75;;;0.88;;
51636;SDS011;37713;53.254;6.460;2023-07-31T05:45:13;8.50;;;1.02;;
51636;SDS011;37713;53.254;6.460;2023-07-31T05:47:39;8.10;;;1.25;;
51636;SDS011;37713;53.254;6.460;2023-07-31T05:50:05;3.55;;;0.80;;
51636;SDS011;37713;53.254;6.460;2023-07-31T05:52:31;15.85;;;1.20;;
51636;SDS011;37713;53.254;6.460;2023-07-31T05:54:56;5.20;;;0.82;;
51636;SDS011;37713;53.254;6.460;2023-07-31T05:57:22;10.75;;;1.27;;
51636;SDS011;37713;53.254;6.460;2023-07-31T05:59:48;5.82;;;1.00;;
51636;SDS011;37713;53.254;6.460;2023-07-31T06:02:14;0.95;;;0.50;;
51636;SDS011;37713;53.254;6.460;2023-07-31T06:04:39;1.88;;;0.80;;
51636;SDS011;37713;53.254;6.460;2023-07-31T06:07:06;8.85;;;1.05;;
51636;SDS011;37713;53.254;6.460;2023-07-31T06:09:32;5.50;;;0.98;;
51636;SDS011;37713;53.254;6.460;2023-07-31T06:11:58;5.05;;;1.00;;
51636;SDS011;37713;53.254;6.460;2023-07-31T06:14:24;7.95;;;1.30;;
51636;SDS011;37713;53.254;6.460;2023-07-31T06:16:49;4.55;;;1.42;;
51636;SDS011;37713;53.254;6.460;2023-07-31T06:19:15;7.57;;;1.35;;
51636;SDS011;37713;53.254;6.460;2023-07-31T06:21:41;7.05;;;1.40;;
51636;SDS011;37713;53.254;6.460;2023-07-31T06:24:08;7.80;;;1.40;;
51636;SDS011;37713;53.254;6.460;2023-07-31T06:26:34;4.32;;;1.27;;
51636;SDS011;37713;53.254;6.460;2023-07-31T06:29:00;8.68;;;2.03;;
51636;SDS011;37713;53.254;6.460;2023-07-31T06:31:25;7.20;;;1.98;;
51636;SDS011;37713;53.254;6.460;2023-07-31T06:33:52;6.00;;;1.58;;
51636;SDS011;37713;53.254;6.460;2023-07-31T06:36:18;6.60;;;2.03;;
51636;SDS011;37713;53.254;6.460;2023-07-31T06:38:44;11.55;;;2.47;;
51636;SDS011;37713;53.254;6.460;2023-07-31T06:41:09;9.85;;;2.40;;
51636;SDS011;37713;53.254;6.460;2023-07-31T06:43:36;7.10;;;2.63;;
51636;SDS011;37713;53.254;6.460;2023-07-31T06:46:05;12.73;;;3.55;;
51636;SDS011;37713;53.254;6.460;2023-07-31T06:48:32;9.52;;;3.63;;
51636;SDS011;37713;53.254;6.460;2023-07-31T06:50:58;12.38;;;3.67;;
51636;SDS011;37713;53.254;6.460;2023-07-31T06:53:25;14.35;;;4.05;;
51636;SDS011;37713;53.254;6.460;2023-07-31T06:55:51;15.43;;;4.35;;
51636;SDS011;37713;53.254;6.460;2023-07-31T06:58:17;16.58;;;4.70;;
51636;SDS011;37713;53.254;6.460;2023-07-31T07:00:43;15.50;;;4.93;;
51636;SDS011;37713;53.254;6.460;2023-07-31T07:03:09;18.80;;;5.47;;
51636;SDS011;37713;53.254;6.460;2023-07-31T07:05:35;17.15;;;5.43;;
51636;SDS011;37713;53.254;6.460;2023-07-31T07:08:00;23.02;;;5.53;;
51636;SDS011;37713;53.254;6.460;2023-07-31T07:10:26;24.02;;;5.75;;
51636;SDS011;37713;53.254;6.460;2023-07-31T07:12:52;23.63;;;6.22;;
51636;SDS011;37713;53.254;6.460;2023-07-31T07:15:18;24.27;;;5.75;;
51636;SDS011;37713;53.254;6.460;2023-07-31T07:17:44;16.20;;;5.60;;
51636;SDS011;37713;53.254;6.460;2023-07-31T07:20:10;23.27;;;5.65;;
51636;SDS011;37713;53.254;6.460;2023-07-31T07:22:35;20.92;;;5.15;;
51636;SDS011;37713;53.254;6.460;2023-07-31T07:25:02;20.60;;;5.32;;
51636;SDS011;37713;53.254;6.460;2023-07-31T07:27:28;20.25;;;4.80;;
51636;SDS011;37713;53.254;6.460;2023-07-31T07:29:54;14.60;;;4.47;;
51636;SDS011;37713;53.254;6.460;2023-07-31T07:32:20;9.90;;;3.70;;
51636;SDS011;37713;53.254;6.460;2023-07-31T07:34:47;16.67;;;4.03;;
51636;SDS011;37713;53.254;6.460;2023-07-31T07:37:13;15.93;;;4.43;;
51636;SDS011;37713;53.254;6.460;2023-07-31T07:39:39;14.75;;;4.32;;
51636;SDS011;37713;53.254;6.460;2023-07-31T07:42:05;15.68;;;4.32;;
51636;SDS011;37713;53.254;6.460;2023-07-31T07:44:31;16.40;;;4.53;;
51636;SDS011;37713;53.254;6.460;2023-07-31T07:46:57;14.68;;;4.22;;
51636;SDS011;37713;53.254;6.460;2023-07-31T07:49:22;13.77;;;4.18;;
51636;SDS011;37713;53.254;6.460;2023-07-31T07:51:48;13.93;;;4.22;;
51636;SDS011;37713;53.254;6.460;2023-07-31T07:54:14;12.43;;;3.53;;
51636;SDS011;37713;53.254;6.460;2023-07-31T07:56:42;8.82;;;3.17;;
51636;SDS011;37713;53.254;6.460;2023-07-31T07:59:08;12.23;;;3.30;;
51636;SDS011;37713;53.254;6.460;2023-07-31T08:01:34;16.90;;;3.50;;
51636;SDS011;37713;53.254;6.460;2023-07-31T08:03:59;10.50;;;3.75;;
51636;SDS011;37713;53.254;6.460;2023-07-31T08:06:25;15.73;;;3.30;;
51636;SDS011;37713;53.254;6.460;2023-07-31T08:08:51;11.93;;;2.70;;
51636;SDS011;37713;53.254;6.460;2023-07-31T08:11:17;5.85;;;1.95;;
51636;SDS011;37713;53.254;6.460;2023-07-31T08:13:43;5.55;;;1.35;;
51636;SDS011;37713;53.254;6.460;2023-07-31T08:16:08;5.03;;;0.95;;
51636;SDS011;37713;53.254;6.460;2023-07-31T08:18:35;2.55;;;0.80;;
51636;SDS011;37713;53.254;6.460;2023-07-31T08:21:02;4.38;;;0.70;;
51636;SDS011;37713;53.254;6.460;2023-07-31T08:23:28;3.25;;;0.90;;
51636;SDS011;37713;53.254;6.460;2023-07-31T08:25:53;4.60;;;1.00;;
51636;SDS011;37713;53.254;6.460;2023-07-31T08:28:19;5.63;;;1.00;;
51636;SDS011;37713;53.254;6.460;2023-07-31T08:30:45;3.45;;;0.80;;
51636;SDS011;37713;53.254;6.460;2023-07-31T08:33:11;3.58;;;0.80;;
51636;SDS011;37713;53.254;6.460;2023-07-31T08:35:36;1.50;;;0.70;;
51636;SDS011;37713;53.254;6.460;2023-07-31T08:38:02;2.72;;;0.63;;
51636;SDS011;37713;53.254;6.460;2023-07-31T08:40:28;2.40;;;0.88;;
51636;SDS011;37713;53.254;6.460;2023-07-31T08:42:55;5.07;;;0.80;;
51636;SDS011;37713;53.254;6.460;2023-07-31T08:45:27;1.73;;;0.57;;
51636;SDS011;37713;53.254;6.460;2023-07-31T08:47:53;4.10;;;0.88;;
51636;SDS011;37713;53.254;6.460;2023-07-31T08:50:22;3.20;;;0.80;;
51636;SDS011;37713;53.254;6.460;2023-07-31T08:52:48;1.50;;;0.70;;
51636;SDS011;37713;53.254;6.460;2023-07-31T08:55:16;2.50;;;0.60;;
51636;SDS011;37713;53.254;6.460;2023-07-31T08:57:42;1.05;;;0.57;;
51636;SDS011;37713;53.254;6.460;2023-07-31T09:00:09;3.25;;;0.77;;
51636;SDS011;37713;53.254;6.460;2023-07-31T09:05:10;1.02;;;0.50;;
51636;SDS011;37713;53.254;6.460;2023-07-31T09:07:37;4.22;;;0.50;;
51636;SDS011;37713;53.254;6.460;2023-07-31T09:10:03;1.70;;;0.60;;
51636;SDS011;37713;53.254;6.460;2023-07-31T09:12:30;0.85;;;0.60;;
51636;SDS011;37713;53.254;6.460;2023-07-31T09:14:56;5.40;;;0.70;;
51636;SDS011;37713;53.254;6.460;2023-07-31T09:17:29;2.50;;;0.40;;
51636;SDS011;37713;53.254;6.460;2023-07-31T09:19:56;0.82;;;0.30;;
51636;SDS011;37713;53.254;6.460;2023-07-31T09:22:32;2.05;;;0.43;;
51636;SDS011;37713;53.254;6.460;2023-07-31T09:30:16;1.30;;;0.60;;
51636;SDS011;37713;53.254;6.460;2023-07-31T09:32:44;1.55;;;0.35;;
51636;SDS011;37713;53.254;6.460;2023-07-31T09:37:39;7.20;;;0.55;;
51636;SDS011;37713;53.254;6.460;2023-07-31T09:40:05;0.75;;;0.30;;
51636;SDS011;37713;53.254;6.460;2023-07-31T09:42:31;0.20;;;0.20;;
51636;SDS011;37713;53.254;6.460;2023-07-31T09:45:08;2.08;;;0.40;;
51636;SDS011;37713;53.254;6.460;2023-07-31T09:47:35;2.90;;;0.40;;
51636;SDS011;37713;53.254;6.460;2023-07-31T09:50:00;3.00;;;0.70;;
51636;SDS011;37713;53.254;6.460;2023-07-31T09:52:26;0.55;;;0.30;;
51636;SDS011;37713;53.254;6.460;2023-07-31T09:54:52;2.92;;;0.60;;
51636;SDS011;37713;53.254;6.460;2023-07-31T09:57:18;0.40;;;0.30;;
51636;SDS011;37713;53.254;6.460;2023-07-31T09:59:48;2.83;;;0.30;;
51636;SDS011;37713;53.254;6.460;2023-07-31T10:02:15;1.50;;;0.30;;
51636;SDS011;37713;53.254;6.460;2023-07-31T10:04:49;0.60;;;0.30;;
51636;SDS011;37713;53.254;6.460;2023-07-31T10:07:16;1.77;;;0.47;;
51636;SDS011;37713;53.254;6.460;2023-07-31T10:09:43;1.75;;;0.50;;
51636;SDS011;37713;53.254;6.460;2023-07-31T10:12:11;4.30;;;0.60;;
51636;SDS011;37713;53.254;6.460;2023-07-31T10:14:39;2.03;;;0.50;;
51636;SDS011;37713;53.254;6.460;2023-07-31T10:17:06;4.65;;;0.90;;
51636;SDS011;37713;53.254;6.460;2023-07-31T10:19:33;2.40;;;0.80;;
51636;SDS011;37713;53.254;6.460;2023-07-31T10:22:00;3.40;;;1.42;;
51636;SDS011;37713;53.254;6.460;2023-07-31T10:24:28;4.15;;;1.00;;
51636;SDS011;37713;53.254;6.460;2023-07-31T10:26:57;3.30;;;1.10;;
51636;SDS011;37713;53.254;6.460;2023-07-31T10:29:25;3.72;;;1.20;;
51636;SDS011;37713;53.254;6.460;2023-07-31T10:31:51;3.78;;;1.38;;
51636;SDS011;37713;53.254;6.460;2023-07-31T10:34:18;4.50;;;1.20;;
51636;SDS011;37713;53.254;6.460;2023-07-31T10:36:44;4.13;;;1.60;;
51636;SDS011;37713;53.254;6.460;2023-07-31T10:39:33;4.30;;;1.08;;
51636;SDS011;37713;53.254;6.460;2023-07-31T10:42:10;2.60;;;1.00;;
51636;SDS011;37713;53.254;6.460;2023-07-31T10:44:37;2.25;;;0.80;;
51636;SDS011;37713;53.254;6.460;2023-07-31T10:47:03;1.30;;;0.70;;
51636;SDS011;37713;53.254;6.460;2023-07-31T10:49:28;5.32;;;0.90;;
51636;SDS011;37713;53.254;6.460;2023-07-31T10:51:57;2.22;;;0.63;;
51636;SDS011;37713;53.254;6.460;2023-07-31T10:54:22;2.65;;;0.70;;
51636;SDS011;37713;53.254;6.460;2023-07-31T10:56:51;2.50;;;1.10;;
51636;SDS011;37713;53.254;6.460;2023-07-31T10:59:18;1.60;;;0.70;;
51636;SDS011;37713;53.254;6.460;2023-07-31T11:01:52;2.30;;;0.65;;
51636;SDS011;37713;53.254;6.460;2023-07-31T11:04:26;1.05;;;0.50;;
51636;SDS011;37713;53.254;6.460;2023-07-31T11:06:59;1.85;;;0.47;;
51636;SDS011;37713;53.254;6.460;2023-07-31T11:09:31;0.65;;;0.45;;
51636;SDS011;37713;53.254;6.460;2023-07-31T11:11:58;4.03;;;0.60;;
51636;SDS011;37713;53.254;6.460;2023-07-31T11:14:25;1.48;;;0.40;;
51636;SDS011;37713;53.254;6.460;2023-07-31T11:16:51;1.08;;;0.50;;
51636;SDS011;37713;53.254;6.460;2023-07-31T11:19:24;1.83;;;0.50;;
51636;SDS011;37713;53.254;6.460;2023-07-31T11:21:50;4.78;;;0.68;;
51636;SDS011;37713;53.254;6.460;2023-07-31T11:24:17;2.53;;;0.80;;
51636;SDS011;37713;53.254;6.460;2023-07-31T11:26:53;2.05;;;0.47;;
51636;SDS011;37713;53.254;6.460;2023-07-31T11:29:19;1.15;;;0.68;;
51636;SDS011;37713;53.254;6.460;2023-07-31T11:31:46;3.17;;;0.80;;
51636;SDS011;37713;53.254;6.460;2023-07-31T11:34:13;3.92;;;0.80;;
51636;SDS011;37713;53.254;6.460;2023-07-31T11:36:39;2.65;;;0.70;;
51636;SDS011;37713;53.254;6.460;2023-07-31T11:39:08;6.32;;;0.90;;
51636;SDS011;37713;53.254;6.460;2023-07-31T11:41:35;2.45;;;0.60;;
51636;SDS011;37713;53.254;6.460;2023-07-31T11:44:01;2.53;;;0.85;;
51636;SDS011;37713;53.254;6.460;2023-07-31T11:46:28;2.42;;;0.63;;
51636;SDS011;37713;53.254;6.460;2023-07-31T11:48:59;2.88;;;1.02;;
51636;SDS011;37713;53.254;6.460;2023-07-31T11:53:56;2.95;;;1.10;;
51636;SDS011;37713;53.254;6.460;2023-07-31T11:56:23;2.90;;;1.20;;
51636;SDS011;37713;53.254;6.460;2023-07-31T11:58:52;5.15;;;1.20;;
51636;SDS011;37713;53.254;6.460;2023-07-31T12:01:20;2.95;;;1.40;;
51636;SDS011;37713;53.254;6.460;2023-07-31T12:03:47;3.53;;;1.30;;
51636;SDS011;37713;53.254;6.460;2023-07-31T12:06:15;4.05;;;1.60;;
51636;SDS011;37713;53.254;6.460;2023-07-31T12:08:41;4.38;;;1.33;;
51636;SDS011;37713;53.254;6.460;2023-07-31T12:11:08;3.58;;;1.17;;
51636;SDS011;37713;53.254;6.460;2023-07-31T12:13:40;8.73;;;1.67;;
51636;SDS011;37713;53.254;6.460;2023-07-31T12:16:06;3.67;;;1.40;;
51636;SDS011;37713;53.254;6.460;2023-07-31T12:18:36;3.00;;;1.10;;
51636;SDS011;37713;53.254;6.460;2023-07-31T12:21:04;3.22;;;1.35;;
51636;SDS011;37713;53.254;6.460;2023-07-31T12:23:31;3.65;;;1.30;;
51636;SDS011;37713;53.254;6.460;2023-07-31T12:28:44;6.95;;;1.55;;
51636;SDS011;37713;53.254;6.460;2023-07-31T12:31:18;10.32;;;1.63;;
51636;SDS011;37713;53.254;6.460;2023-07-31T12:33:47;3.65;;;1.30;;
51636;SDS011;37713;53.254;6.460;2023-07-31T12:36:21;4.77;;;1.17;;
51636;SDS011;37713;53.254;6.460;2023-07-31T12:38:49;4.93;;;1.50;;
51636;SDS011;37713;53.254;6.460;2023-07-31T12:41:15;6.05;;;1.40;;
51636;SDS011;37713;53.254;6.460;2023-07-31T12:43:41;4.93;;;1.35;;
51636;SDS011;37713;53.254;6.460;2023-07-31T12:46:08;4.65;;;1.25;;
51636;SDS011;37713;53.254;6.460;2023-07-31T12:48:35;3.53;;;1.15;;
51636;SDS011;37713;53.254;6.460;2023-07-31T12:51:01;4.50;;;1.25;;
51636;SDS011;37713;53.254;6.460;2023-07-31T12:53:28;3.83;;;1.10;;
51636;SDS011;37713;53.254;6.460;2023-07-31T12:55:54;7.32;;;1.40;;
51636;SDS011;37713;53.254;6.460;2023-07-31T12:58:21;3.92;;;1.30;;
51636;SDS011;37713;53.254;6.460;2023-07-31T13:00:46;3.13;;;1.20;;
51636;SDS011;37713;53.254;6.460;2023-07-31T13:03:12;14.30;;;1.90;;
51636;SDS011;37713;53.254;6.460;2023-07-31T13:05:38;4.00;;;1.45;;
51636;SDS011;37713;53.254;6.460;2023-07-31T13:08:04;7.47;;;1.70;;
51636;SDS011;37713;53.254;6.460;2023-07-31T13:10:30;4.32;;;1.40;;
51636;SDS011;37713;53.254;6.460;2023-07-31T13:12:56;7.90;;;1.80;;
51636;SDS011;37713;53.254;6.460;2023-07-31T13:15:22;11.38;;;2.55;;
51636;SDS011;37713;53.254;6.460;2023-07-31T13:17:48;9.48;;;2.28;;
51636;SDS011;37713;53.254;6.460;2023-07-31T13:20:14;8.80;;;2.40;;
51636;SDS011;37713;53.254;6.460;2023-07-31T13:22:40;11.32;;;2.58;;
51636;SDS011;37713;53.254;6.460;2023-07-31T13:25:06;12.18;;;2.50;;
51636;SDS011;37713;53.254;6.460;2023-07-31T13:27:32;10.07;;;2.08;;
51636;SDS011;37713;53.254;6.460;2023-07-31T13:29:58;10.48;;;2.45;;
51636;SDS011;37713;53.254;6.460;2023-07-31T13:32:23;8.07;;;2.30;;
51636;SDS011;37713;53.254;6.460;2023-07-31T13:34:49;6.65;;;2.20;;
51636;SDS011;37713;53.254;6.460;2023-07-31T13:37:15;11.10;;;2.50;;
51636;SDS011;37713;53.254;6.460;2023-07-31T13:39:41;8.25;;;2.38;;
51636;SDS011;37713;53.254;6.460;2023-07-31T13:42:08;10.38;;;2.72;;
51636;SDS011;37713;53.254;6.460;2023-07-31T13:44:36;12.20;;;2.65;;
51636;SDS011;37713;53.254;6.460;2023-07-31T13:47:02;6.82;;;2.40;;
51636;SDS011;37713;53.254;6.460;2023-07-31T13:49:29;10.65;;;2.70;;
51636;SDS011;37713;53.254;6.460;2023-07-31T13:51:55;8.63;;;2.33;;
51636;SDS011;37713;53.254;6.460;2023-07-31T13:54:24;10.50;;;2.47;;
51636;SDS011;37713;53.254;6.460;2023-07-31T13:56:51;10.68;;;2.58;;
51636;SDS011;37713;53.254;6.460;2023-07-31T13:59:17;9.15;;;2.65;;
51636;SDS011;37713;53.254;6.460;2023-07-31T14:01:44;9.38;;;2.92;;
51636;SDS011;37713;53.254;6.460;2023-07-31T14:04:10;9.32;;;2.70;;
51636;SDS011;37713;53.254;6.460;2023-07-31T14:06:36;7.53;;;2.47;;
51636;SDS011;37713;53.254;6.460;2023-07-31T14:09:02;8.18;;;2.47;;
51636;SDS011;37713;53.254;6.460;2023-07-31T14:11:28;10.60;;;3.47;;
51636;SDS011;37713;53.254;6.460;2023-07-31T14:13:55;6.90;;;2.60;;
51636;SDS011;37713;53.254;6.460;2023-07-31T14:16:21;11.80;;;3.08;;
51636;SDS011;37713;53.254;6.460;2023-07-31T14:18:47;9.65;;;2.80;;
51636;SDS011;37713;53.254;6.460;2023-07-31T14:21:13;9.23;;;2.80;;
51636;SDS011;37713;53.254;6.460;2023-07-31T14:23:39;10.60;;;3.00;;
51636;SDS011;37713;53.254;6.460;2023-07-31T14:26:05;11.85;;;2.50;;
51636;SDS011;37713;53.254;6.460;2023-07-31T14:28:31;12.45;;;3.13;;
51636;SDS011;37713;53.254;6.460;2023-07-31T14:30:57;11.80;;;3.20;;
51636;SDS011;37713;53.254;6.460;2023-07-31T14:33:23;12.10;;;3.30;;
51636;SDS011;37713;53.254;6.460;2023-07-31T14:35:49;9.82;;;3.22;;
51636;SDS011;37713;53.254;6.460;2023-07-31T14:38:15;15.77;;;3.35;;
51636;SDS011;37713;53.254;6.460;2023-07-31T14:40:41;8.23;;;3.33;;
51636;SDS011;37713;53.254;6.460;2023-07-31T14:43:07;8.45;;;3.33;;
51636;SDS011;37713;53.254;6.460;2023-07-31T14:45:33;10.70;;;3.25;;
51636;SDS011;37713;53.254;6.460;2023-07-31T14:47:58;16.42;;;3.70;;
51636;SDS011;37713;53.254;6.460;2023-07-31T14:50:25;11.23;;;2.97;;
51636;SDS011;37713;53.254;6.460;2023-07-31T14:52:51;14.20;;;3.33;;
51636;SDS011;37713;53.254;6.460;2023-07-31T14:55:17;19.10;;;3.72;;
51636;SDS011;37713;53.254;6.460;2023-07-31T14:57:43;14.82;;;3.47;;
51636;SDS011;37713;53.254;6.460;2023-07-31T15:00:09;9.32;;;3.33;;
51636;SDS011;37713;53.254;6.460;2023-07-31T15:02:39;17.35;;;4.35;;